Sacul, Texas
Current Conditions -  °F | °C
As of 6:15 PM on Friday 21 Nov 2014 (Local Time) from KJSO Reporting Station
Drizzle Drizzle  
Wind Chill: 60°   Ceiling: 2700
Heat Index: 60°   Visibility: 5mi
Dew Point: 58°   Wind: 8mph
Humidity: 94%   Direction: 130°SE
Pressure: 30.16"   Gusts: NA
Location:  31.82°N, 94.92°W
Report Text: KJSO 220015Z AUTO 13007KT 5SM DZ SCT012 BKN027 OVC033 15/14 A3016 RMK AO2 T01550145
Loading
Personal Weather Stations






























Interactive Weather Map New forecast layout! Learn more

10-Day Weather Forecast

Advertisements
Track Severe Weather on mobile